Time;durP1;ratioP1;P1;durP2;ratioP2;P2;SDS_P1;SDS_P2;PMS_P1;PMS_P2;Temp;Humidity;BMP_temperature;BMP_pressure;BME280_temperature;BME280_humidity;BME280_pressure;Samples;Min_cycle;Max_cycle;Signal;HPM_P1;HPM_P2
2023/01/02 00:01:15;;;;;;;6.38;2.45;;;11.20;99.90;;;;;;20697696;28;20580;-42
2023/01/02 00:11:16;;;;;;;7.25;2.20;;;11.20;99.90;;;;;;20683642;28;20787;-42
2023/01/02 00:21:17;;;;;;;7.68;3.72;;;11.20;99.90;;;;;;20682695;28;20440;-41
2023/01/02 00:31:18;;;;;;;5.43;2.63;;;11.20;99.90;;;;;;20692999;28;20548;-41
2023/01/02 00:41:20;;;;;;;4.20;2.13;;;11.30;99.90;;;;;;20686278;28;20849;-41
2023/01/02 00:51:21;;;;;;;5.63;2.20;;;11.20;99.90;;;;;;20687520;28;20249;-41
2023/01/02 01:01:22;;;;;;;7.05;2.42;;;11.20;99.90;;;;;;20688083;28;20037;-42
2023/01/02 01:11:23;;;;;;;4.63;2.95;;;11.20;99.90;;;;;;20687294;28;20041;-42
2023/01/02 01:21:24;;;;;;;4.10;1.88;;;11.20;99.90;;;;;;20685952;28;20053;-41
2023/01/02 01:31:25;;;;;;;5.72;2.67;;;11.30;99.90;;;;;;20683314;28;20088;-42
2023/01/02 01:41:26;;;;;;;6.63;2.40;;;11.30;99.90;;;;;;20682637;28;20049;-41
2023/01/02 01:51:29;;;;;;;4.40;1.80;;;11.30;99.90;;;;;;20687278;28;20042;-42
2023/01/02 02:01:31;;;;;;;5.75;2.50;;;11.30;99.90;;;;;;20683630;28;20049;-42
2023/01/02 02:11:32;;;;;;;7.85;2.08;;;11.40;99.90;;;;;;20679146;28;20034;-41
2023/01/02 02:21:54;;;;;;;3.60;1.73;;;11.40;99.90;;;;;;20681452;28;20865;-41
2023/01/02 02:32:10;;;;;;;6.00;2.70;;;11.40;99.90;;;;;;20686384;28;21915;-41
2023/01/02 02:42:34;;;;;;;4.20;1.80;;;11.40;99.90;;;;;;20687932;28;20115;-41
2023/01/02 02:52:45;;;;;;;3.35;1.90;;;11.40;99.90;;;;;;20679693;28;20085;-41
2023/01/02 03:02:46;;;;;;;6.35;2.42;;;11.40;99.90;;;;;;20697495;28;20552;-41
2023/01/02 03:13:15;;;;;;;5.47;2.05;;;11.40;99.90;;;;;;20690502;28;20468;-41
2023/01/02 03:23:20;;;;;;;5.35;2.67;;;11.40;99.90;;;;;;20687225;28;20049;-41
2023/01/02 03:33:32;;;;;;;3.70;2.00;;;11.40;99.90;;;;;;20691578;28;20515;-41
2023/01/02 03:43:36;;;;;;;6.07;2.03;;;11.50;99.90;;;;;;20688810;28;20112;-41
2023/01/02 03:53:38;;;;;;;5.32;2.65;;;11.60;99.90;;;;;;20705486;28;20072;-41
2023/01/02 04:03:47;;;;;;;3.85;2.42;;;11.70;99.90;;;;;;20686579;28;20081;-41
2023/01/02 04:13:52;;;;;;;5.55;2.67;;;11.70;99.90;;;;;;20689041;28;20693;-41
2023/01/02 04:24:04;;;;;;;4.22;1.70;;;11.80;99.90;;;;;;20691330;28;20647;-41
2023/01/02 04:34:10;;;;;;;7.90;2.92;;;12.00;99.90;;;;;;20685649;28;20046;-41
2023/01/02 04:44:11;;;;;;;6.90;2.38;;;12.10;99.90;;;;;;20690322;28;20062;-41
2023/01/02 04:54:12;;;;;;;4.30;1.67;;;12.20;99.90;;;;;;20684633;28;20040;-41
2023/01/02 05:04:13;;;;;;;2.97;1.52;;;12.30;99.90;;;;;;20685370;28;20046;-41
2023/01/02 05:14:14;;;;;;;3.65;1.83;;;12.20;99.90;;;;;;20684129;28;20049;-42
2023/01/02 05:24:16;;;;;;;1.58;0.88;;;12.20;99.90;;;;;;20674313;28;20064;-41
2023/01/02 05:34:17;;;;;;;2.67;1.20;;;11.80;99.90;;;;;;20686139;28;20054;-42
2023/01/02 05:44:18;;;;;;;1.63;0.60;;;11.10;99.90;;;;;;20683590;28;20046;-41
2023/01/02 05:54:19;;;;;;;0.95;0.43;;;10.60;99.90;;;;;;20674666;28;20111;-42
2023/01/02 06:04:20;;;;;;;3.58;1.40;;;10.30;99.90;;;;;;20677457;28;20046;-42
2023/01/02 06:14:22;;;;;;;1.25;0.65;;;10.20;99.90;;;;;;20680294;28;20887;-42
2023/01/02 06:24:23;;;;;;;2.50;1.17;;;10.00;99.90;;;;;;20701017;28;20583;-42
2023/01/02 06:34:24;;;;;;;2.80;1.33;;;10.00;99.90;;;;;;20699177;28;20457;-42
2023/01/02 06:44:25;;;;;;;1.50;0.47;;;9.90;99.90;;;;;;20705381;28;20532;-42
2023/01/02 06:54:26;;;;;;;1.95;0.77;;;9.70;99.90;;;;;;20698603;28;20112;-42
2023/01/02 07:04:27;;;;;;;2.70;0.73;;;9.60;99.90;;;;;;20698288;28;20041;-42
2023/01/02 07:14:28;;;;;;;1.20;0.55;;;9.50;99.90;;;;;;20688274;28;20049;-42
2023/01/02 07:24:29;;;;;;;3.90;0.57;;;9.50;99.90;;;;;;20705187;28;20042;-42
2023/01/02 07:34:30;;;;;;;1.45;0.40;;;9.40;99.90;;;;;;20698237;28;20042;-42
2023/01/02 07:44:32;;;;;;;2.22;0.75;;;9.40;99.90;;;;;;20699707;28;20057;-42
2023/01/02 07:54:33;;;;;;;2.30;1.02;;;9.20;99.90;;;;;;20661975;28;20038;-43
2023/01/02 08:04:35;;;;;;;3.22;1.33;;;9.20;99.90;;;;;;20691446;28;20042;-41
2023/01/02 08:14:36;;;;;;;2.88;0.93;;;9.20;99.90;;;;;;20694334;28;20112;-42
2023/01/02 08:24:37;;;;;;;5.72;0.70;;;9.10;99.90;;;;;;20696503;28;20139;-42
2023/01/02 08:34:38;;;;;;;1.73;0.73;;;9.20;99.90;;;;;;20679161;28;20094;-42
2023/01/02 08:44:39;;;;;;;1.50;0.80;;;9.10;99.90;;;;;;20696608;28;20564;-42
2023/01/02 08:54:40;;;;;;;1.92;0.70;;;9.10;99.90;;;;;;20679637;28;20050;-42
2023/01/02 09:04:41;;;;;;;1.30;0.65;;;9.00;99.90;;;;;;20634683;28;20053;-42
2023/01/02 09:14:42;;;;;;;5.47;1.75;;;9.00;99.90;;;;;;20651680;28;20041;-42
2023/01/02 09:24:43;;;;;;;1.73;0.80;;;9.10;99.90;;;;;;20632294;28;20179;-42
2023/01/02 09:34:49;;;;;;;2.20;1.10;;;9.10;99.90;;;;;;20607827;28;20068;-41
2023/01/02 09:44:59;;;;;;;8.65;1.60;;;9.10;99.90;;;;;;20626256;28;20088;-42
2023/01/02 09:55:01;;;;;;;2.03;0.98;;;9.10;99.90;;;;;;20656653;28;20038;-42
2023/01/02 10:05:26;;;;;;;1.95;1.05;;;9.10;99.90;;;;;;20626029;28;20053;-42
2023/01/02 10:15:29;;;;;;;2.33;0.50;;;9.10;99.90;;;;;;20619830;28;21218;-42
2023/01/02 10:25:40;;;;;;;1.23;0.50;;;9.10;99.90;;;;;;20631131;28;20090;-41
2023/01/02 10:35:46;;;;;;;1.42;0.50;;;9.20;99.90;;;;;;20648460;28;20127;-42
2023/01/02 10:45:47;;;;;;;3.15;0.80;;;9.20;99.90;;;;;;20670450;28;20563;-42
2023/01/02 10:55:48;;;;;;;2.50;0.45;;;9.40;99.90;;;;;;20684427;28;20181;-42
2023/01/02 11:05:52;;;;;;;2.85;1.10;;;9.40;99.90;;;;;;20662740;28;20093;-42
2023/01/02 11:15:59;;;;;;;1.35;0.65;;;9.50;99.90;;;;;;20679969;28;20038;-42
2023/01/02 11:26:02;;;;;;;19.10;1.40;;;9.80;99.90;;;;;;20709024;28;20411;-42
2023/01/02 11:36:03;;;;;;;3.05;0.82;;;9.90;99.90;;;;;;20735456;28;20038;-42
2023/01/02 11:46:09;;;;;;;1.48;0.50;;;9.60;99.90;;;;;;20676126;28;20121;-42
2023/01/02 11:56:27;;;;;;;2.33;0.85;;;9.60;99.90;;;;;;20589392;28;20108;-42
2023/01/02 12:06:35;;;;;;;5.30;1.17;;;9.70;99.90;;;;;;20629262;28;21860;-42
2023/01/02 12:17:01;;;;;;;1.40;0.50;;;9.70;99.90;;;;;;20618202;28;20040;-42
2023/01/02 12:27:26;;;;;;;4.88;0.90;;;9.80;99.90;;;;;;20617392;28;20895;-42
2023/01/02 12:37:41;;;;;;;3.50;1.40;;;9.80;99.90;;;;;;20620077;28;20046;-41
2023/01/02 12:48:12;;;;;;;4.40;1.30;;;9.80;99.90;;;;;;20617998;28;20449;-43
2023/01/02 12:58:36;;;;;;;4.57;2.03;;;9.80;99.90;;;;;;20594292;28;20781;-43
2023/01/02 13:08:48;;;;;;;4.80;2.08;;;9.80;99.90;;;;;;20589970;28;20559;-42
2023/01/02 13:19:28;;;;;;;3.35;1.40;;;9.70;99.90;;;;;;20609519;28;20042;-42
2023/01/02 13:29:44;;;;;;;3.75;1.48;;;9.50;99.90;;;;;;20329042;28;20899;-43
2023/01/02 13:39:55;;;;;;;3.42;1.20;;;9.30;99.90;;;;;;20611122;28;20038;-42
2023/01/02 13:50:10;;;;;;;7.50;1.52;;;9.20;99.90;;;;;;20615875;28;20744;-42
2023/01/02 14:00:14;;;;;;;2.60;1.13;;;9.20;99.90;;;;;;20611080;28;20053;-42
2023/01/02 14:20:28;;;;;;;3.55;1.67;;;9.30;99.90;;;;;;21404362;23;20133;-40
2023/01/02 14:30:32;;;;;;;2.63;1.92;;;9.30;99.90;;;;;;20534494;28;20130;-39
2023/01/02 14:40:40;;;;;;;3.30;1.10;;;9.30;99.90;;;;;;20522201;28;20185;-39
2023/01/02 14:50:44;;;;;;;3.40;1.45;;;9.10;99.90;;;;;;20539365;28;20678;-39
2023/01/02 15:00:47;;;;;;;2.17;1.33;;;9.20;99.90;;;;;;20537801;28;20133;-39
2023/01/02 15:21:28;;;;;;;1.52;0.73;;;9.00;99.90;;;;;;20471165;28;20977;-40
2023/01/02 15:31:29;;;;;;;1.98;0.63;;;9.00;99.90;;;;;;20503188;28;20119;-40
2023/01/02 15:41:30;;;;;;;3.78;1.50;;;9.00;99.90;;;;;;20496659;28;20121;-40
2023/01/02 15:51:32;;;;;;;1.55;0.70;;;8.90;99.90;;;;;;20506004;28;20507;-39
2023/01/02 16:01:35;;;;;;;7.28;1.45;;;8.90;99.90;;;;;;20498379;28;20569;-40
2023/01/02 16:11:49;;;;;;;4.57;1.50;;;8.80;99.90;;;;;;20501805;28;20091;-39
2023/01/02 16:21:52;;;;;;;4.35;1.35;;;8.80;99.90;;;;;;20499009;28;20446;-40
2023/01/02 16:31:59;;;;;;;4.05;1.13;;;8.70;99.90;;;;;;20514462;28;20078;-42
2023/01/02 16:52:19;;;;;;;2.40;1.38;;;8.60;99.90;;;;;;20497437;28;21195;-39
2023/01/02 17:02:20;;;;;;;4.03;1.25;;;8.50;99.90;;;;;;20523179;28;20038;-39
2023/01/02 17:12:21;;;;;;;2.80;0.98;;;8.50;99.90;;;;;;20540468;28;20027;-40
2023/01/02 17:22:23;;;;;;;3.13;1.38;;;8.20;99.90;;;;;;20538305;28;20066;-42
2023/01/02 17:32:24;;;;;;;4.78;2.47;;;8.00;99.90;;;;;;20493016;28;20141;-40
2023/01/02 17:42:25;;;;;;;2.92;1.23;;;7.80;99.90;;;;;;20484405;28;20185;-40
2023/01/02 17:52:26;;;;;;;4.07;1.67;;;7.60;99.90;;;;;;20486730;28;20074;-42
2023/01/02 18:02:27;;;;;;;1.85;0.80;;;7.40;99.90;;;;;;20492198;28;20066;-40
2023/01/02 18:12:28;;;;;;;3.40;1.55;;;7.20;99.90;;;;;;20486333;28;20356;-40
2023/01/02 18:22:29;;;;;;;4.85;1.55;;;7.00;99.90;;;;;;20488712;28;20136;-40
2023/01/02 18:32:34;;;;;;;4.05;1.98;;;7.00;99.90;;;;;;20492628;28;20146;-40
2023/01/02 18:42:35;;;;;;;2.92;1.45;;;6.90;99.90;;;;;;20484977;28;20122;-40
2023/01/02 18:52:39;;;;;;;3.63;1.60;;;6.80;99.90;;;;;;20486639;28;20190;-40
2023/01/02 19:03:02;;;;;;;3.63;1.60;;;6.70;99.90;;;;;;20484448;28;20126;-40
2023/01/02 19:13:17;;;;;;;5.85;2.08;;;6.60;99.90;;;;;;20484143;28;20067;-40
2023/01/02 19:23:28;;;;;;;7.07;2.60;;;6.60;99.90;;;;;;20480744;28;22097;-40
2023/01/02 19:33:38;;;;;;;7.05;3.33;;;6.60;99.90;;;;;;20484546;28;20858;-40
2023/01/02 19:43:39;;;;;;;3.50;2.20;;;6.60;99.90;;;;;;20510667;28;20605;-39
2023/01/02 19:53:40;;;;;;;4.18;2.10;;;6.50;99.90;;;;;;20511695;28;20491;-40
2023/01/02 20:03:41;;;;;;;4.43;2.25;;;6.40;99.90;;;;;;20494201;28;20106;-40
2023/01/02 20:13:42;;;;;;;4.18;2.33;;;6.40;99.90;;;;;;20511794;28;20049;-40
2023/01/02 20:23:43;;;;;;;8.35;4.47;;;6.30;99.90;;;;;;20518593;28;20046;-39
2023/01/02 20:33:44;;;;;;;6.10;3.50;;;6.10;99.90;;;;;;20506362;28;20039;-40
2023/01/02 20:43:45;;;;;;;4.65;2.58;;;6.10;99.90;;;;;;20488839;28;20134;-40
2023/01/02 20:53:49;;;;;;;8.50;3.70;;;6.10;99.90;;;;;;20491166;28;20160;-40
2023/01/02 21:03:50;;;;;;;8.20;2.67;;;6.00;99.90;;;;;;20490159;28;20338;-40
2023/01/02 21:13:51;;;;;;;9.48;4.07;;;5.90;99.90;;;;;;20490302;28;20070;-39
2023/01/02 21:23:52;;;;;;;4.32;2.80;;;5.80;99.90;;;;;;20496352;28;20039;-39
2023/01/02 21:33:53;;;;;;;7.18;2.70;;;5.80;99.90;;;;;;20499205;28;20161;-39
2023/01/02 21:43:54;;;;;;;4.05;2.80;;;5.70;99.90;;;;;;20502644;28;20144;-39
2023/01/02 21:53:55;;;;;;;3.85;2.63;;;5.60;99.90;;;;;;20502101;28;20145;-39
2023/01/02 22:03:56;;;;;;;5.45;2.92;;;5.60;99.90;;;;;;20505476;28;20039;-40
2023/01/02 22:13:57;;;;;;;7.25;3.50;;;5.60;99.90;;;;;;20458123;28;20070;-40
2023/01/02 22:23:58;;;;;;;6.15;4.03;;;5.60;99.90;;;;;;20477799;28;20618;-40
2023/01/02 22:34:01;;;;;;;8.60;4.35;;;5.60;99.90;;;;;;20487579;28;20406;-40
2023/01/02 22:44:04;;;;;;;7.00;3.20;;;5.40;99.90;;;;;;20502951;28;20039;-40
2023/01/02 22:54:17;;;;;;;5.13;2.80;;;5.30;99.90;;;;;;20486690;28;20501;-40
2023/01/02 23:04:21;;;;;;;10.65;3.92;;;5.30;99.90;;;;;;20506902;28;20699;-40
2023/01/02 23:14:22;;;;;;;8.32;3.75;;;5.20;99.90;;;;;;20487960;28;21103;-40
2023/01/02 23:24:29;;;;;;;5.15;2.65;;;5.20;99.90;;;;;;20526452;28;20069;-40
2023/01/02 23:34:30;;;;;;;3.77;1.97;;;5.10;99.90;;;;;;20503953;28;20062;-40
2023/01/02 23:44:31;;;;;;;5.80;3.20;;;5.00;99.90;;;;;;20522999;28;20532;-40
2023/01/02 23:54:32;;;;;;;4.00;2.35;;;4.90;99.90;;;;;;20516505;28;20101;-40
